Site contains unofficial IBTrACS data. Visit the IBTrACS Website to access archived data.

1887 Hurricane NOT_NAMED (1887255N13303)


IBTrACS version v04r00. Visit IBTrACS website for data access.
Please direct all questions to the IBTrACS Q and A forum

Storm track - Intensity - Wind Radii - Intensity Data - Source Data - All data

Summary Information

Storm ID 1887255N13303
Start Sep 11 12Z
Landfall Sep 17 18Z, Sep 21 17Z
Max Intensity 90 kt (Sep 17 12Z), 973 mb (Sep 21 17Z)
End Sep 22 18Z
ATCF IDs AL091887
Track status Best track data.

Storm track plot

Map of storm track

Intensity plots

Map of storm track

Radial wind information

No radial wind information for this storm


Position and Intensity Table

BASIN ISO_TIME_________ NATURE LAT LON WMO WIND WMO PRES USA WIND USA PRES MLC WIND MLC PRES
degrees north degrees east kts mb kts mb kts mb
NA 1887-09-11 12:00:00 TS 13.30 -57.00 35 35
NA 15:00:00 TS 13.36 -57.61 37
NA 18:00:00 TS 13.40 -58.20 40 40
NA 21:00:00 TS 13.40 -58.76 42
NA 1887-09-12 00:00:00 TS 13.40 -59.30 45 45
NA 03:00:00 TS 13.44 -59.86 47
NA 06:00:00 TS 13.50 -60.40 50 50
NA 09:00:00 TS 13.55 -60.92 52
NA 12:00:00 TS 13.60 -61.40 55 55
NA 15:00:00 TS 13.65 -61.87 57
NA 18:00:00 TS 13.70 -62.30 60 60
NA 21:00:00 TS 13.75 -62.71 62
NA 1887-09-13 00:00:00 TS 13.80 -63.10 65 65
NA 03:00:00 TS 13.85 -63.49 67
NA 06:00:00 TS 13.90 -63.90 70 70
NA 09:00:00 TS 13.95 -64.31 72
NA 12:00:00 TS 14.00 -64.80 75 75
NA 15:00:00 TS 14.05 -65.45 77
NA 18:00:00 TS 14.10 -66.20 80 80
NA 21:00:00 TS 14.14 -66.98 82
NA 1887-09-14 00:00:00 TS 14.20 -67.80 85 85
NA 03:00:00 TS 14.30 -68.66 85
NA 06:00:00 TS 14.40 -69.50 85 85
NA 09:00:00 TS 14.45 -70.28 85
NA 12:00:00 TS 14.50 -71.00 85 85
NA 15:00:00 TS 14.58 -71.67 85
NA 18:00:00 TS 14.70 -72.30 85 85
NA 21:00:00 TS 14.84 -72.91 85
NA 1887-09-15 00:00:00 TS 15.00 -73.50 85 85
NA 03:00:00 TS 15.14 -74.09 85
NA 06:00:00 TS 15.30 -74.70 85 85
NA 09:00:00 TS 15.48 -75.31 85
NA 12:00:00 TS 15.70 -76.00 85 85
NA 15:00:00 TS 15.94 -76.86 85
NA 18:00:00 TS 16.20 -77.80 85 85
NA 21:00:00 TS 16.44 -78.69 85
NA 1887-09-16 00:00:00 TS 16.70 -79.60 85 85
NA 03:00:00 TS 16.99 -80.57 85
NA 06:00:00 TS 17.39 -81.67 85 85 60
NA 09:00:00 TS 17.80 -82.50 85 60
NA 12:00:00 TS 18.19 -83.14 85 85 60
NA 15:00:00 TS 18.55 -83.64 85 65
NA 18:00:00 TS 18.87 -84.07 85 85 70
NA 21:00:00 TS 19.21 -84.50 85 77
NA 1887-09-17 00:00:00 TS 19.57 -84.90 85 85 85
NA 03:00:00 TS 19.92 -85.27 85 85
NA 06:00:00 TS 20.27 -85.60 85 85 85
NA 09:00:00 TS 20.61 -85.91 85 87
NA 12:00:00 TS 20.93 -86.23 85 85 90
NA 15:00:00 TS 21.19 -86.61 80 90
NA 18:00:00 TS 21.43 -86.97 75 75 90
NA 21:00:00 TS 21.72 -87.26 77 90
NA 1887-09-18 00:00:00 TS 22.00 -87.53 80 80 90
NA 03:00:00 TS 22.26 -87.83 82 90
NA 06:00:00 TS 22.50 -88.13 85 85 90
NA 09:00:00 TS 22.74 -88.42 85 90
NA 12:00:00 TS 22.97 -88.70 85 85 90
NA 15:00:00 TS 23.19 -88.95 85 90
NA 18:00:00 TS 23.40 -89.20 85 85 90
NA 21:00:00 TS 23.60 -89.46 85 90
NA 1887-09-19 00:00:00 TS 23.80 -89.73 85 85 90
NA 03:00:00 TS 23.99 -89.99 85 90
NA 06:00:00 TS 24.20 -90.27 85 85 90
NA 09:00:00 TS 24.46 -90.58 85 90
NA 12:00:00 TS 24.73 -90.93 85 85 90
NA 15:00:00 TS 24.97 -91.35 85 90
NA 18:00:00 TS 25.17 -91.77 85 85 90
NA 21:00:00 TS 25.34 -92.10 85 90
NA 1887-09-20 00:00:00 TS 25.50 -92.43 85 85 90
NA 03:00:00 TS 25.69 -92.83 85 90
NA 06:00:00 TS 25.87 -93.27 85 85 90
NA 09:00:00 TS 25.99 -93.72 85 90
NA 12:00:00 TS 26.07 -94.17 85 85 90
NA 15:00:00 TS 26.11 -94.57 85 90
NA 18:00:00 TS 26.13 -94.97 85 85 90
NA 21:00:00 TS 26.14 -95.38 85 90
NA 1887-09-21 00:00:00 TS 26.13 -95.77 85 85 90
NA 03:00:00 TS 26.13 -96.11 82 87
NA 06:00:00 TS 26.13 -96.40 80 80 85
NA 09:00:00 TS 26.14 -96.67 77 85
NA 12:00:00 TS 26.13 -96.90 75 75 85
NA 15:00:00 TS 26.08 -97.11 75 82
NA 17:00:00 TS 26.05 -97.25 75 973 75 973 80
NA 18:00:00 TS 26.03 -97.33 75 973 75 973 80 973
NA 21:00:00 TS 26.01 -97.57 67 70
NA 1887-09-22 00:00:00 TS 25.97 -97.80 60 60 60
NA 03:00:00 TS 25.88 -98.03 52 52
NA 06:00:00 TS 25.77 -98.27 45 45 45
NA 09:00:00 TS 25.66 -98.49 40 40
NA 12:00:00 TS 25.50 -98.77 35 35 35
NA 15:00:00 TS 25.27 -99.15 32 32
NA 18:00:00 TS 25.00 -99.60 30 30 30

Source Information

Agency Information
USA hurdat2-1851-2019-042820.txt:Line=5768:UNNAMED
TOKYO
CMA
HKO
NEWDELHI
REUNION
BOM
NADI
WELLINGTON
DS824
TD9636
TD9635
NEUMANN
MLC

All available IBTrACS Data

SEASON BASIN SUBBASIN ISO_TIME_________ NATURE LAT LON WMO WIND WMO PRES WMO AGENCY DIST2LAND LANDFALL IFLAG USA AGENCY USA ATCF_ID USA LAT USA LON USA RECORD USA STATUS USA WIND USA PRES USA SSHS MLC LAT MLC LON MLC CLASS MLC WIND MLC PRES STORM SPEED STORM DIR
Year degrees north degrees east kts mb km km degrees north degrees east kts mb 1 degrees north degrees east kts mb kts degrees
1887 NA NA 1887-09-11 12:00:00 TS 13.30 -57.00 35 hurdat_atl 523 477 O_____________ hurdat_atl AL091887 13.30 -57.00 TS 35 0 12 276
1887 NA NA 15:00:00 TS 13.36 -57.61 477 429 P_____________ AL091887 13.36 -57.61 TS 37 0 12 275
1887 NA NA 18:00:00 TS 13.40 -58.20 40 hurdat_atl 429 392 O_____________ hurdat_atl AL091887 13.40 -58.20 TS 40 0 11 272
1887 NA NA 21:00:00 TS 13.40 -58.76 385 354 P_____________ AL091887 13.40 -58.76 TS 42 0 11 270
1887 NA CS 1887-09-12 00:00:00 TS 13.40 -59.30 45 hurdat_atl 354 329 O_____________ hurdat_atl AL091887 13.40 -59.30 TS 45 0 11 272
1887 NA CS 03:00:00 TS 13.44 -59.86 325 320 P_____________ AL091887 13.44 -59.86 TS 47 0 11 275
1887 NA CS 06:00:00 TS 13.50 -60.40 50 hurdat_atl 320 313 O_____________ hurdat_atl AL091887 13.50 -60.40 TS 50 0 10 276
1887 NA CS 09:00:00 TS 13.55 -60.92 313 313 P_____________ AL091887 13.55 -60.92 TS 52 0 10 276
1887 NA CS 12:00:00 TS 13.60 -61.40 55 hurdat_atl 324 324 O_____________ hurdat_atl AL091887 13.60 -61.40 TS 55 0 9 276
1887 NA CS 15:00:00 TS 13.65 -61.87 325 325 P_____________ AL091887 13.65 -61.87 TS 57 0 9 277
1887 NA CS 18:00:00 TS 13.70 -62.30 60 hurdat_atl 335 335 O_____________ hurdat_atl AL091887 13.70 -62.30 TS 60 0 8 277
1887 NA CS 21:00:00 TS 13.75 -62.71 335 335 P_____________ AL091887 13.75 -62.71 TS 62 0 8 277
1887 NA CS 1887-09-13 00:00:00 TS 13.80 -63.10 65 hurdat_atl 347 347 O_____________ hurdat_atl AL091887 13.80 -63.10 HU 65 1 8 277
1887 NA CS 03:00:00 TS 13.85 -63.49 349 349 P_____________ AL091887 13.85 -63.49 HU 67 1 8 277
1887 NA CS 06:00:00 TS 13.90 -63.90 70 hurdat_atl 368 368 O_____________ hurdat_atl AL091887 13.90 -63.90 HU 70 1 8 277
1887 NA CS 09:00:00 TS 13.95 -64.31 369 369 P_____________ AL091887 13.95 -64.31 HU 72 1 9 277
1887 NA CS 12:00:00 TS 14.00 -64.80 75 hurdat_atl 386 386 O_____________ hurdat_atl AL091887 14.00 -64.80 HU 75 1 11 275
1887 NA CS 15:00:00 TS 14.05 -65.45 386 386 P_____________ AL091887 14.05 -65.45 HU 77 1 14 274
1887 NA CS 18:00:00 TS 14.10 -66.20 80 hurdat_atl 391 363 O_____________ hurdat_atl AL091887 14.10 -66.20 HU 80 1 15 274
1887 NA CS 21:00:00 TS 14.14 -66.98 358 327 P_____________ AL091887 14.14 -66.98 HU 82 1 16 274
1887 NA CS 1887-09-14 00:00:00 TS 14.20 -67.80 85 hurdat_atl 327 283 O_____________ hurdat_atl AL091887 14.20 -67.80 HU 85 2 16 276
1887 NA CS 03:00:00 TS 14.30 -68.66 278 261 P_____________ AL091887 14.30 -68.66 HU 85 2 17 277
1887 NA CS 06:00:00 TS 14.40 -69.50 85 hurdat_atl 261 257 O_____________ hurdat_atl AL091887 14.40 -69.50 HU 85 2 16 275
1887 NA CS 09:00:00 TS 14.45 -70.28 257 241 P_____________ AL091887 14.45 -70.28 HU 85 2 15 274
1887 NA CS 12:00:00 TS 14.50 -71.00 85 hurdat_atl 241 235 O_____________ hurdat_atl AL091887 14.50 -71.00 HU 85 2 14 276
1887 NA CS 15:00:00 TS 14.58 -71.67 246 246 P_____________ AL091887 14.58 -71.67 HU 85 2 13 279
1887 NA CS 18:00:00 TS 14.70 -72.30 85 hurdat_atl 265 265 O_____________ hurdat_atl AL091887 14.70 -72.30 HU 85 2 12 282
1887 NA CS 21:00:00 TS 14.84 -72.91 296 296 P_____________ AL091887 14.84 -72.91 HU 85 2 12 285
1887 NA CS 1887-09-15 00:00:00 TS 15.00 -73.50 85 hurdat_atl 337 324 O_____________ hurdat_atl AL091887 15.00 -73.50 HU 85 2 12 285
1887 NA CS 03:00:00 TS 15.14 -74.09 325 308 P_____________ AL091887 15.14 -74.09 HU 85 2 12 285
1887 NA CS 06:00:00 TS 15.30 -74.70 85 hurdat_atl 313 285 O_____________ hurdat_atl AL091887 15.30 -74.70 HU 85 2 12 286
1887 NA CS 09:00:00 TS 15.48 -75.31 285 247 P_____________ AL091887 15.48 -75.31 HU 85 2 13 288
1887 NA CS 12:00:00 TS 15.70 -76.00 85 hurdat_atl 247 205 O_____________ hurdat_atl AL091887 15.70 -76.00 HU 85 2 16 287
1887 NA CS 15:00:00 TS 15.94 -76.86 203 173 P_____________ AL091887 15.94 -76.86 HU 85 2 18 286
1887 NA CS 18:00:00 TS 16.20 -77.80 85 hurdat_atl 179 178 O_____________ hurdat_atl AL091887 16.20 -77.80 HU 85 2 18 286
1887 NA CS 21:00:00 TS 16.44 -78.69 198 189 P_____________ AL091887 16.44 -78.69 HU 85 2 18 286
1887 NA CS 1887-09-16 00:00:00 TS 16.70 -79.60 85 hurdat_atl 210 210 O_____________ hurdat_atl AL091887 16.70 -79.60 HU 85 2 19 287
1887 NA CS 03:00:00 TS 16.99 -80.57 269 269 P_____________ AL091887 16.99 -80.57 HU 85 2 21 289
1887 NA CS 06:00:00 TS 17.39 -81.67 85 hurdat_atl 296 287 O____________O hurdat_atl AL091887 17.30 -81.50 HU 85 2 18.10 -83.00 TS 60 20 294
1887 NA CS 09:00:00 TS 17.80 -82.50 293 287 P____________P AL091887 17.64 -82.31 HU 85 2 18.41 -83.25 TS 60 16 300
1887 NA CS 12:00:00 TS 18.19 -83.14 85 hurdat_atl 297 292 O____________O hurdat_atl AL091887 18.00 -83.00 HU 85 2 18.70 -83.50 TS 60 13 305
1887 NA CS 15:00:00 TS 18.55 -83.64 311 311 P____________P AL091887 18.34 -83.59 HU 85 2 18.96 -83.75 TS 65 11 307
1887 NA CS 18:00:00 TS 18.87 -84.07 85 hurdat_atl 310 290 O____________O hurdat_atl AL091887 18.70 -84.10 HU 85 2 19.20 -84.00 HU 70 11 309
1887 NA CS 21:00:00 TS 19.21 -84.50 290 254 P____________P AL091887 19.09 -84.62 HU 85 2 19.45 -84.25 HU 77 11 312
1887 NA CS 1887-09-17 00:00:00 TS 19.57 -84.90 85 hurdat_atl 246 203 O____________O hurdat_atl AL091887 19.50 -85.10 HU 85 2 19.70 -84.50 HU 85 10 314
1887 NA CS 03:00:00 TS 19.92 -85.27 194 151 P____________P AL091887 19.91 -85.52 HU 85 2 19.94 -84.75 HU 85 10 317
1887 NA CS 06:00:00 TS 20.27 -85.60 85 hurdat_atl 145 100 O____________O hurdat_atl AL091887 20.30 -85.90 HU 85 2 20.20 -85.00 HU 85 9 319
1887 NA CS 09:00:00 TS 20.61 -85.91 100 56 P____________P AL091887 20.68 -86.27 HU 85 2 20.48 -85.21 HU 87 9 318
1887 NA CS 12:00:00 TS 20.93 -86.23 85 hurdat_atl 56 15 O____________O hurdat_atl AL091887 21.00 -86.60 HU 85 2 20.80 -85.50 HU 90 9 312
1887 NA CS 15:00:00 TS 21.19 -86.61 15 0 P____________P AL091887 21.21 -86.92 HU 80 1 21.14 -85.98 HU 90 8 306
1887 NA NA 18:00:00 TS 21.43 -86.97 75 hurdat_atl 0 0 O____________O hurdat_atl AL091887 21.40 -87.20 HU 75 1 21.50 -86.50 HU 90 8 311
1887 NA GM 21:00:00 TS 21.72 -87.26 30 30 P____________P AL091887 21.65 -87.45 HU 77 1 21.85 -86.88 HU 90 8 317
1887 NA GM 1887-09-18 00:00:00 TS 22.00 -87.53 80 hurdat_atl 59 56 O____________O hurdat_atl AL091887 21.90 -87.70 HU 80 1 22.20 -87.20 HU 90 8 315
1887 NA GM 03:00:00 TS 22.26 -87.83 89 89 P____________P AL091887 22.11 -88.00 HU 82 1 22.56 -87.50 HU 90 7 312
1887 NA GM 06:00:00 TS 22.50 -88.13 85 hurdat_atl 111 111 O____________O hurdat_atl AL091887 22.30 -88.30 HU 85 2 22.90 -87.80 HU 90 7 311
1887 NA GM 09:00:00 TS 22.74 -88.42 134 134 P____________P AL091887 22.50 -88.56 HU 85 2 23.22 -88.16 HU 90 7 312
1887 NA GM 12:00:00 TS 22.97 -88.70 85 hurdat_atl 168 168 O____________O hurdat_atl AL091887 22.70 -88.80 HU 85 2 23.50 -88.50 HU 90 7 313
1887 NA GM 15:00:00 TS 23.19 -88.95 194 194 P____________P AL091887 22.90 -89.05 HU 85 2 23.76 -88.76 HU 90 6 313
1887 NA GM 18:00:00 TS 23.40 -89.20 85 hurdat_atl 221 221 O____________O hurdat_atl AL091887 23.10 -89.30 HU 85 2 24.00 -89.00 HU 90 6 311
1887 NA GM 21:00:00 TS 23.60 -89.46 252 252 P____________P AL091887 23.30 -89.55 HU 85 2 24.21 -89.29 HU 90 6 309
1887 NA GM 1887-09-19 00:00:00 TS 23.80 -89.73 85 hurdat_atl 280 280 O____________O hurdat_atl AL091887 23.50 -89.80 HU 85 2 24.40 -89.60 HU 90 6 309
1887 NA GM 03:00:00 TS 23.99 -89.99 310 310 P____________P AL091887 23.68 -90.04 HU 85 2 24.60 -89.90 HU 90 6 309
1887 NA GM 06:00:00 TS 24.20 -90.27 85 hurdat_atl 337 337 O____________O hurdat_atl AL091887 23.90 -90.30 HU 85 2 24.80 -90.20 HU 90 7 312
1887 NA GM 09:00:00 TS 24.46 -90.58 375 375 P____________P AL091887 24.19 -90.63 HU 85 2 25.01 -90.46 HU 90 8 311
1887 NA GM 12:00:00 TS 24.73 -90.93 85 hurdat_atl 404 404 O____________O hurdat_atl AL091887 24.50 -91.00 HU 85 2 25.20 -90.80 HU 90 9 306
1887 NA GM 15:00:00 TS 24.97 -91.35 450 442 P____________P AL091887 24.76 -91.36 HU 85 2 25.37 -91.33 HU 90 9 300
1887 NA GM 18:00:00 TS 25.17 -91.77 85 hurdat_atl 444 435 O____________O hurdat_atl AL091887 25.00 -91.70 HU 85 2 25.50 -91.90 HU 90 8 299
1887 NA GM 21:00:00 TS 25.34 -92.10 440 425 P____________P AL091887 25.21 -91.99 HU 85 2 25.60 -92.32 HU 90 7 299
1887 NA GM 1887-09-20 00:00:00 TS 25.50 -92.43 85 hurdat_atl 428 419 O____________O hurdat_atl AL091887 25.40 -92.30 HU 85 2 25.70 -92.70 HU 90 8 298
1887 NA GM 03:00:00 TS 25.69 -92.83 423 389 P____________P AL091887 25.61 -92.68 HU 85 2 25.85 -93.14 HU 90 8 296
1887 NA GM 06:00:00 TS 25.87 -93.27 85 hurdat_atl 379 339 O____________O hurdat_atl AL091887 25.80 -93.10 HU 85 2 26.00 -93.60 HU 90 9 290
1887 NA GM 09:00:00 TS 25.99 -93.72 339 299 P____________P AL091887 25.92 -93.55 HU 85 2 26.12 -94.06 HU 90 8 284
1887 NA GM 12:00:00 TS 26.07 -94.17 85 hurdat_atl 289 249 O____________O hurdat_atl AL091887 26.00 -94.00 HU 85 2 26.20 -94.50 HU 90 8 279
1887 NA GM 15:00:00 TS 26.11 -94.57 249 219 P____________P AL091887 26.06 -94.41 HU 85 2 26.21 -94.91 HU 90 7 275
1887 NA GM 18:00:00 TS 26.13 -94.97 85 hurdat_atl 209 170 O____________O hurdat_atl AL091887 26.10 -94.80 HU 85 2 26.20 -95.30 HU 90 7 272
1887 NA GM 21:00:00 TS 26.14 -95.38 170 140 P____________P AL091887 26.11 -95.22 HU 85 2 26.20 -95.71 HU 90 7 270
1887 NA GM 1887-09-21 00:00:00 TS 26.13 -95.77 85 hurdat_atl 130 100 O____________O hurdat_atl AL091887 26.10 -95.60 HU 85 2 26.20 -96.10 HU 90 7 270
1887 NA GM 03:00:00 TS 26.13 -96.11 100 70 P____________P AL091887 26.10 -95.92 HU 82 1 26.20 -96.49 HU 87 6 270
1887 NA GM 06:00:00 TS 26.13 -96.40 80 hurdat_atl 70 41 O____________O hurdat_atl AL091887 26.10 -96.20 HU 80 1 26.20 -96.80 HU 85 5 271
1887 NA GM 09:00:00 TS 26.14 -96.67 41 22 P____________P AL091887 26.10 -96.51 HU 77 1 26.22 -96.98 HU 85 4 270
1887 NA GM 12:00:00 TS 26.13 -96.90 75 hurdat_atl 22 11 O____________O hurdat_atl AL091887 26.10 -96.80 HU 75 1 26.20 -97.10 HU 85 4 262
1887 NA GM 15:00:00 TS 26.08 -97.11 11 0 P____________P AL091887 26.10 -97.03 HU 75 1 26.05 -97.26 HU 82 4 255
1887 NA GM 17:00:00 TS 26.05 -97.25 75 973 hurdat_atl 0 0 O____________P hurdat_atl AL091887 26.10 -97.20 L HU 75 973 1 25.94 -97.36 HU 80 4 256
1887 NA NA 18:00:00 TS 26.03 -97.33 75 973 hurdat_atl 0 0 O____________O hurdat_atl AL091887 26.10 -97.30 HU 75 973 1 25.90 -97.40 HU 80 973 4 263
1887 NA NA 21:00:00 TS 26.01 -97.57 0 0 P____________P AL091887 26.07 -97.61 HU 67 1 25.89 -97.49 HU 70 4 261
1887 NA NA 1887-09-22 00:00:00 TS 25.97 -97.80 60 hurdat_atl 0 0 O____________O hurdat_atl AL091887 26.00 -97.90 TS 60 0 25.90 -97.60 TS 60 4 253
1887 NA NA 03:00:00 TS 25.88 -98.03 0 0 P____________P AL091887 25.91 -98.16 TS 52 0 25.81 -97.78 TS 52 5 245
1887 NA NA 06:00:00 TS 25.77 -98.27 45 hurdat_atl 0 0 O____________O hurdat_atl AL091887 25.80 -98.40 TS 45 0 25.70 -98.00 TS 45 5 241
1887 NA NA 09:00:00 TS 25.66 -98.49 0 0 P____________P AL091887 25.67 -98.63 TS 40 0 25.62 -98.20 TS 40 5 239
1887 NA NA 12:00:00 TS 25.50 -98.77 35 hurdat_atl 0 0 O____________O hurdat_atl AL091887 25.50 -98.90 TS 35 0 25.50 -98.50 TS 35 7 237
1887 NA NA 15:00:00 TS 25.27 -99.15 0 0 P____________P AL091887 25.27 -99.23 TS 32 -1 25.28 -98.99 TS 32 9 236
1887 NA NA 18:00:00 TS 25.00 -99.60 30 hurdat_atl 0 O____________O hurdat_atl AL091887 25.00 -99.60 TD 30 -1 25.00 -99.60 TD 30 10 236